createdAt,value
2018-05-25T00:00:26.340Z,101436.63
2018-05-25T00:02:55.626Z,101434.23
2018-05-25T00:05:25.127Z,101439.19
2018-05-25T00:07:54.235Z,101434.53
2018-05-25T00:10:22.651Z,101438.00
2018-05-25T00:12:51.801Z,101438.50
2018-05-25T00:15:20.950Z,101434.34
2018-05-25T00:17:50.750Z,101431.80
2018-05-25T00:20:20.281Z,101436.38
2018-05-25T00:22:49.422Z,101434.45
2018-05-25T00:25:17.785Z,101440.09
2018-05-25T00:27:47.001Z,101435.47
2018-05-25T00:30:15.492Z,101441.27
2018-05-25T00:32:44.782Z,101444.41
2018-05-25T00:35:15.114Z,101446.14
2018-05-25T00:37:43.475Z,101448.14
2018-05-25T00:40:12.544Z,101442.36
2018-05-25T00:42:41.782Z,101438.09
2018-05-25T00:45:11.091Z,101432.59
2018-05-25T00:47:41.223Z,101436.28
2018-05-25T00:50:09.801Z,101435.62
2018-05-25T00:52:39.724Z,101433.54
2018-05-25T00:55:25.888Z,101428.60
2018-05-25T00:57:54.259Z,101431.34
2018-05-25T01:00:23.367Z,101429.28
2018-05-25T01:02:52.580Z,101430.30
2018-05-25T01:05:21.895Z,101435.04
2018-05-25T01:07:51.052Z,101434.38
2018-05-25T01:10:20.429Z,101430.91
2018-05-25T01:12:49.617Z,101427.11
2018-05-25T01:15:21.374Z,101435.09
2018-05-25T01:17:49.939Z,101428.90
2018-05-25T01:20:18.302Z,101430.86
2018-05-25T01:22:47.981Z,101427.48
2018-05-25T01:25:17.257Z,101425.73
2018-05-25T01:27:48.274Z,101422.31
2018-05-25T01:30:16.705Z,101423.91
2018-05-25T01:32:45.812Z,101421.89
2018-05-25T01:35:14.230Z,101424.95
2018-05-25T01:37:43.482Z,101420.71
2018-05-25T01:40:14.692Z,101412.99
2018-05-25T01:42:43.591Z,101414.66
2018-05-25T01:45:13.812Z,101420.85
2018-05-25T01:47:43.482Z,101412.77
2018-05-25T01:50:11.807Z,101416.17
2018-05-25T01:52:41.014Z,101414.00
2018-05-25T01:55:11.953Z,101412.38
2018-05-25T01:57:41.956Z,101417.75
2018-05-25T02:00:10.357Z,101411.81
2018-05-25T02:02:39.436Z,101410.52
2018-05-25T02:05:08.529Z,101409.84
2018-05-25T02:07:38.627Z,101409.47
2018-05-25T02:10:06.974Z,101411.12
2018-05-25T02:12:37.654Z,101412.98
2018-05-25T02:15:06.089Z,101409.09
2018-05-25T02:17:35.038Z,101411.35
2018-05-25T02:20:05.527Z,101410.13
2018-05-25T02:22:34.998Z,101413.28
2018-05-25T02:25:04.801Z,101409.81
2018-05-25T02:27:34.024Z,101417.42
2018-05-25T02:30:02.429Z,101418.89
2018-05-25T02:32:30.780Z,101413.18
2018-05-25T02:35:00.048Z,101417.63
2018-05-25T02:37:29.381Z,101416.73
2018-05-25T02:39:58.192Z,101420.66
2018-05-25T02:42:27.217Z,101424.63
2018-05-25T02:44:56.401Z,101424.30
2018-05-25T02:47:24.740Z,101420.13
2018-05-25T02:49:55.444Z,101430.23
2018-05-25T02:52:24.564Z,101430.84
2018-05-25T02:54:53.528Z,101425.18
2018-05-25T02:57:22.785Z,101423.64
2018-05-25T02:59:51.803Z,101427.15
2018-05-25T03:02:21.932Z,101423.28
2018-05-25T03:04:50.949Z,101423.81
2018-05-25T03:07:19.360Z,101430.75
2018-05-25T03:09:47.717Z,101434.33
2018-05-25T03:12:17.025Z,101432.19
2018-05-25T03:14:46.295Z,101436.50
2018-05-25T03:17:14.653Z,101440.02
2018-05-25T03:19:43.801Z,101433.77
2018-05-25T03:22:12.144Z,101438.95
2018-05-25T03:24:41.310Z,101433.21
2018-05-25T03:27:09.650Z,101430.09
2018-05-25T03:29:38.605Z,101429.77
2018-05-25T03:32:08.422Z,101434.09
2018-05-25T03:34:37.548Z,101438.45
2018-05-25T03:37:05.932Z,101440.26
2018-05-25T03:39:34.271Z,101437.67
2018-05-25T03:42:05.110Z,101440.89
2018-05-25T03:44:34.251Z,101433.08
2018-05-25T03:47:02.931Z,101438.61
2018-05-25T03:49:32.039Z,101437.63
2018-05-25T03:52:00.949Z,101441.83
2018-05-25T03:54:29.320Z,101439.58
2018-05-25T03:56:57.770Z,101438.35
2018-05-25T03:59:44.020Z,101445.36
2018-05-25T04:02:13.212Z,101437.72
2018-05-25T04:04:43.410Z,101445.49
2018-05-25T04:07:11.772Z,101448.14
2018-05-25T04:09:41.118Z,101448.70
2018-05-25T04:12:10.282Z,101444.44
2018-05-25T04:14:39.437Z,101441.56
2018-05-25T04:17:09.582Z,101439.39
2018-05-25T04:19:37.952Z,101439.98
2018-05-25T04:22:06.317Z,101443.58
2018-05-25T04:24:37.159Z,101446.70
2018-05-25T04:27:05.530Z,101447.58
2018-05-25T04:29:34.654Z,101443.67
2018-05-25T04:32:03.081Z,101450.22
2018-05-25T04:34:31.447Z,101447.62
2018-05-25T04:36:59.819Z,101446.03
2018-05-25T04:39:28.981Z,101445.99
2018-05-25T04:41:57.328Z,101442.86
2018-05-25T04:44:26.482Z,101446.55
2018-05-25T04:46:54.845Z,101442.92
2018-05-25T04:49:23.935Z,101439.97
2018-05-25T04:51:53.097Z,101444.84
2018-05-25T04:54:22.640Z,101443.60
2018-05-25T04:56:52.269Z,101443.70
2018-05-25T04:59:20.953Z,101439.92
2018-05-25T05:01:49.539Z,101445.56
2018-05-25T05:04:18.742Z,101444.42
2018-05-25T05:06:48.209Z,101441.22
2018-05-25T05:09:16.928Z,101440.84
2018-05-25T05:11:46.243Z,101443.02
2018-05-25T05:14:15.311Z,101438.27
2018-05-25T05:16:44.305Z,101442.18
2018-05-25T05:19:12.923Z,101446.13
2018-05-25T05:21:41.497Z,101442.83
2018-05-25T05:24:09.840Z,101441.09
2018-05-25T05:26:38.924Z,101437.97
2018-05-25T05:29:07.252Z,101437.91
2018-05-25T05:31:35.730Z,101437.33
2018-05-25T05:34:05.572Z,101439.84
2018-05-25T05:36:35.117Z,101445.42
2018-05-25T05:39:04.212Z,101448.09
2018-05-25T05:41:32.613Z,101446.34
2018-05-25T05:44:01.449Z,101447.23
2018-05-25T05:46:30.599Z,101448.56
2018-05-25T05:48:58.981Z,101453.69
2018-05-25T05:51:28.293Z,101455.66
2018-05-25T05:53:57.768Z,101459.99
2018-05-25T05:56:26.138Z,101456.93
2018-05-25T05:58:55.475Z,101459.09
2018-05-25T06:01:24.689Z,101463.30
2018-05-25T06:03:55.432Z,101463.23
2018-05-25T06:06:25.761Z,101469.22
2018-05-25T06:08:54.942Z,101465.55
2018-05-25T06:11:24.246Z,101470.20
2018-05-25T06:13:54.054Z,101465.35
2018-05-25T06:16:23.318Z,101470.47
2018-05-25T06:18:54.026Z,101473.31
2018-05-25T06:21:22.364Z,101469.81
2018-05-25T06:23:50.947Z,101469.36
2018-05-25T06:26:20.162Z,101473.98
2018-05-25T06:28:49.542Z,101476.33
2018-05-25T06:31:19.793Z,101473.96
2018-05-25T06:33:48.932Z,101473.67
2018-05-25T06:36:18.475Z,101476.48
2018-05-25T06:38:46.882Z,101475.95
2018-05-25T06:41:16.152Z,101488.63
2018-05-25T06:43:44.972Z,101483.68
2018-05-25T06:46:13.315Z,101485.30
2018-05-25T06:48:43.343Z,101490.63
2018-05-25T06:51:14.439Z,101484.66
2018-05-25T06:53:43.542Z,101491.04
2018-05-25T06:56:11.998Z,101489.58
2018-05-25T06:58:41.350Z,101489.34
2018-05-25T07:01:10.429Z,101485.36
2018-05-25T07:03:39.594Z,101485.45
2018-05-25T07:06:08.696Z,101483.03
2018-05-25T07:08:38.080Z,101480.61
2018-05-25T07:11:08.856Z,101491.32
2018-05-25T07:13:38.432Z,101488.47
2018-05-25T07:16:13.150Z,101493.97
2018-05-25T07:18:41.706Z,101488.54
2018-05-25T07:21:10.156Z,101482.62
2018-05-25T07:23:40.431Z,101481.98
2018-05-25T07:26:09.673Z,101484.45
2018-05-25T07:28:39.370Z,101478.17
2018-05-25T07:31:08.066Z,101474.89
2018-05-25T07:33:38.969Z,101470.47
2018-05-25T07:36:07.617Z,101468.41
2018-05-25T07:38:36.224Z,101462.14
2018-05-25T07:41:09.502Z,101470.39
2018-05-25T07:43:38.801Z,101475.91
2018-05-25T07:46:08.572Z,101472.06
2018-05-25T07:48:42.830Z,101467.87
2018-05-25T07:51:11.614Z,101468.55
2018-05-25T07:53:40.792Z,101472.25
2018-05-25T07:56:13.160Z,101464.14
2018-05-25T07:58:42.619Z,101466.25
2018-05-25T08:01:11.339Z,101466.61
2018-05-25T08:03:39.880Z,101467.37
2018-05-25T08:06:09.984Z,101471.08
2018-05-25T08:08:39.612Z,101466.13
2018-05-25T08:11:08.608Z,101461.19
2018-05-25T08:13:37.103Z,101468.47
2018-05-25T08:16:09.230Z,101471.25
2018-05-25T08:18:39.685Z,101475.77
2018-05-25T08:21:09.040Z,101472.94
2018-05-25T08:23:38.134Z,101467.41
2018-05-25T08:26:08.302Z,101467.56
2018-05-25T08:28:39.584Z,101472.02
2018-05-25T08:31:09.585Z,101470.94
2018-05-25T08:33:38.527Z,101470.69
2018-05-25T08:36:07.439Z,101473.27
2018-05-25T08:38:38.160Z,101475.17
2018-05-25T08:41:06.655Z,101476.68
2018-05-25T08:43:36.047Z,101471.16
2018-05-25T08:46:05.266Z,101480.05
2018-05-25T08:48:35.347Z,101475.02
2018-05-25T08:51:03.782Z,101477.08
2018-05-25T08:53:32.205Z,101472.00
2018-05-25T08:56:00.857Z,101466.98
2018-05-25T08:58:29.205Z,101472.95
2018-05-25T09:00:58.273Z,101467.67
2018-05-25T09:03:26.815Z,101467.30
2018-05-25T09:05:55.971Z,101467.97
2018-05-25T09:08:25.360Z,101472.06
2018-05-25T09:10:55.502Z,101473.07
2018-05-25T09:13:24.733Z,101472.86
2018-05-25T09:15:53.077Z,101467.19
2018-05-25T09:18:24.377Z,101474.72
2018-05-25T09:20:55.311Z,101471.30
2018-05-25T09:23:26.318Z,101467.91
2018-05-25T09:25:56.457Z,101460.78
2018-05-25T09:28:24.972Z,101467.88
2018-05-25T09:30:53.382Z,101456.17
2018-05-25T09:33:22.613Z,101466.08
2018-05-25T09:35:51.089Z,101466.35
2018-05-25T09:38:23.084Z,101458.85
2018-05-25T09:40:52.672Z,101468.46
2018-05-25T09:43:21.950Z,101464.09
2018-05-25T09:45:52.350Z,101457.89
2018-05-25T09:48:22.516Z,101457.04
2018-05-25T09:50:52.040Z,101461.19
2018-05-25T09:53:21.816Z,101456.23
2018-05-25T09:55:51.873Z,101457.05
2018-05-25T09:58:21.425Z,101459.92
2018-05-25T10:00:50.690Z,101459.34
2018-05-25T10:03:22.421Z,101455.09
2018-05-25T10:05:52.697Z,101464.84
2018-05-25T10:08:21.174Z,101451.44
2018-05-25T10:10:50.614Z,101455.82
2018-05-25T10:13:19.817Z,101444.03
2018-05-25T10:15:50.009Z,101449.76
2018-05-25T10:18:19.297Z,101457.16
2018-05-25T10:20:47.802Z,101454.70
2018-05-25T10:23:16.552Z,101457.09
2018-05-25T10:25:45.063Z,101450.58
2018-05-25T10:28:15.599Z,101462.66
2018-05-25T10:30:45.009Z,101456.73
2018-05-25T10:33:13.671Z,101452.03
2018-05-25T10:35:43.996Z,101453.05
2018-05-25T10:38:12.378Z,101446.71
2018-05-25T10:40:41.556Z,101459.81
2018-05-25T10:43:11.585Z,101455.23
2018-05-25T10:45:41.874Z,101451.26
2018-05-25T10:48:13.122Z,101447.81
2018-05-25T10:50:41.678Z,101448.88
2018-05-25T10:53:12.375Z,101443.00
2018-05-25T10:55:42.330Z,101441.67
2018-05-25T10:58:10.679Z,101441.77
2018-05-25T11:00:39.225Z,101446.38
2018-05-25T11:03:07.864Z,101433.07
2018-05-25T11:05:36.323Z,101442.73
2018-05-25T11:08:04.669Z,101439.32
2018-05-25T11:10:33.993Z,101438.89
2018-05-25T11:13:02.366Z,101433.02
2018-05-25T11:15:31.521Z,101433.03
2018-05-25T11:18:01.178Z,101441.22
2018-05-25T11:20:31.360Z,101435.70
2018-05-25T11:22:59.992Z,101435.43
2018-05-25T11:25:28.604Z,101428.91
2018-05-25T11:27:57.768Z,101430.43
2018-05-25T11:30:28.249Z,101429.63
2018-05-25T11:32:57.702Z,101428.19
2018-05-25T11:35:27.906Z,101431.56
2018-05-25T11:37:57.165Z,101422.63
2018-05-25T11:40:25.651Z,101419.48
2018-05-25T11:42:55.885Z,101425.64
2018-05-25T11:45:24.240Z,101420.44
2018-05-25T11:47:53.667Z,101405.66
2018-05-25T11:50:22.262Z,101410.47
2018-05-25T11:52:51.717Z,101410.84
2018-05-25T11:55:20.336Z,101412.55
2018-05-25T11:57:49.972Z,101403.03
2018-05-25T12:00:18.349Z,101397.82
2018-05-25T12:02:47.935Z,101396.98
2018-05-25T12:05:16.366Z,101398.65
2018-05-25T12:07:44.777Z,101400.72
2018-05-25T12:10:13.812Z,101402.67
2018-05-25T12:12:43.008Z,101403.59
2018-05-25T12:15:12.092Z,101388.08
2018-05-25T12:17:40.438Z,101392.86
2018-05-25T12:20:09.733Z,101398.02
2018-05-25T12:22:38.945Z,101394.30
2018-05-25T12:25:08.334Z,101390.57
2018-05-25T12:27:36.760Z,101390.78
2018-05-25T12:30:05.925Z,101391.25
2018-05-25T12:32:34.297Z,101389.73
2018-05-25T12:35:05.628Z,101391.59
2018-05-25T12:37:34.054Z,101391.16
2018-05-25T12:40:04.171Z,101388.97
2018-05-25T12:42:32.563Z,101393.00
2018-05-25T12:45:14.487Z,101392.87
2018-05-25T12:47:42.839Z,101385.45
2018-05-25T12:50:13.568Z,101388.04
2018-05-25T12:52:42.724Z,101392.20
2018-05-25T12:55:11.212Z,101385.83
2018-05-25T12:57:40.213Z,101377.53
2018-05-25T13:00:08.709Z,101380.79
2018-05-25T13:02:37.073Z,101374.64
2018-05-25T13:05:05.804Z,101376.20
2018-05-25T13:07:35.062Z,101372.95
2018-05-25T13:10:03.448Z,101380.72
2018-05-25T13:12:31.896Z,101373.98
2018-05-25T13:15:01.213Z,101379.11
2018-05-25T13:17:30.672Z,101373.61
2018-05-25T13:19:59.710Z,101372.13
2018-05-25T13:22:28.200Z,101363.94
2018-05-25T13:24:56.582Z,101358.66
2018-05-25T13:27:25.022Z,101364.63
2018-05-25T13:29:53.982Z,101362.79
2018-05-25T13:32:23.179Z,101358.48
2018-05-25T13:34:52.341Z,101355.23
2018-05-25T13:37:22.596Z,101354.00
2018-05-25T13:39:51.060Z,101352.44
2018-05-25T13:42:19.390Z,101347.31
2018-05-25T13:44:47.758Z,101354.38
2018-05-25T13:47:16.115Z,101350.30
2018-05-25T13:49:45.280Z,101344.77
2018-05-25T13:52:14.550Z,101347.28
2018-05-25T13:54:42.888Z,101355.77
2018-05-25T13:57:11.976Z,101361.12
2018-05-25T13:59:40.838Z,101356.02
2018-05-25T14:02:09.214Z,101358.09
2018-05-25T14:04:37.634Z,101357.09
2018-05-25T14:07:06.793Z,101353.36
2018-05-25T14:09:36.990Z,101358.32
2018-05-25T14:12:06.184Z,101352.36
2018-05-25T14:14:34.527Z,101355.63
2018-05-25T14:17:04.447Z,101358.05
2018-05-25T14:19:34.532Z,101359.55
2018-05-25T14:22:05.150Z,101362.87
2018-05-25T14:24:33.533Z,101358.09
2018-05-25T14:27:02.868Z,101359.50
2018-05-25T14:29:33.747Z,101352.49
2018-05-25T14:32:04.031Z,101352.22
2018-05-25T14:34:32.784Z,101364.61
2018-05-25T14:37:01.228Z,101355.64
2018-05-25T14:39:30.330Z,101363.95
2018-05-25T14:42:00.320Z,101356.45
2018-05-25T14:44:30.457Z,101351.68
2018-05-25T14:46:59.856Z,101352.49
2018-05-25T14:49:28.510Z,101355.73
2018-05-25T14:51:58.504Z,101351.38
2018-05-25T14:54:26.931Z,101351.72
2018-05-25T14:56:56.227Z,101348.62
2018-05-25T14:59:25.430Z,101349.59
2018-05-25T15:01:53.795Z,101351.25
2018-05-25T15:04:22.901Z,101346.62
2018-05-25T15:06:52.045Z,101343.53
2018-05-25T15:09:21.170Z,101338.31
2018-05-25T15:11:50.289Z,101337.70
2018-05-25T15:14:18.751Z,101344.11
2018-05-25T15:16:47.236Z,101339.88
2018-05-25T15:19:17.308Z,101335.28
2018-05-25T15:21:45.843Z,101333.14
2018-05-25T15:24:15.999Z,101330.45
2018-05-25T15:26:44.361Z,101334.72
2018-05-25T15:29:12.740Z,101331.44
2018-05-25T15:31:43.259Z,101325.17
2018-05-25T15:34:11.608Z,101321.23
2018-05-25T15:36:40.659Z,101318.48
2018-05-25T15:39:09.075Z,101314.23
2018-05-25T15:41:37.429Z,101317.55
2018-05-25T15:44:06.036Z,101315.23
2018-05-25T15:46:34.414Z,101303.40
2018-05-25T15:49:02.792Z,101307.09
2018-05-25T15:51:31.182Z,101310.64
2018-05-25T15:54:00.479Z,101298.64
2018-05-25T15:56:29.317Z,101305.63
2018-05-25T15:58:59.861Z,101310.21
2018-05-25T16:01:29.677Z,101308.84
2018-05-25T16:04:00.514Z,101316.80
2018-05-25T16:06:30.002Z,101318.16
2018-05-25T16:08:58.394Z,101319.84
2018-05-25T16:11:27.530Z,101315.91
2018-05-25T16:13:55.928Z,101321.84
2018-05-25T16:16:25.372Z,101316.23
2018-05-25T16:18:53.783Z,101314.70
2018-05-25T16:21:22.893Z,101309.16
2018-05-25T16:23:52.104Z,101313.59
2018-05-25T16:26:22.262Z,101304.20
2018-05-25T16:28:50.678Z,101307.03
2018-05-25T16:31:19.040Z,101310.72
2018-05-25T16:33:48.236Z,101308.25
2018-05-25T16:36:16.676Z,101311.73
2018-05-25T16:38:45.363Z,101311.84
2018-05-25T16:41:15.159Z,101309.44
2018-05-25T16:43:44.310Z,101302.19
2018-05-25T16:46:12.683Z,101299.42
2018-05-25T16:48:42.085Z,101303.80
2018-05-25T16:51:11.300Z,101306.58
2018-05-25T16:53:39.968Z,101312.70
2018-05-25T16:56:08.317Z,101307.18
2018-05-25T16:58:36.722Z,101313.41
2018-05-25T17:01:05.076Z,101316.66
2018-05-25T17:03:34.832Z,101314.81
2018-05-25T17:06:04.419Z,101309.64
2018-05-25T17:08:32.892Z,101304.80
2018-05-25T17:11:01.326Z,101315.70
2018-05-25T17:13:31.282Z,101316.70
2018-05-25T17:15:59.779Z,101308.45
2018-05-25T17:18:28.150Z,101313.09
2018-05-25T17:20:56.516Z,101311.81
2018-05-25T17:23:24.867Z,101311.83
2018-05-25T17:25:54.159Z,101312.16
2018-05-25T17:28:22.550Z,101310.58
2018-05-25T17:30:51.684Z,101316.33
2018-05-25T17:33:22.281Z,101316.75
2018-05-25T17:35:50.762Z,101312.97
2018-05-25T17:38:19.903Z,101319.91
2018-05-25T17:40:48.280Z,101315.49
2018-05-25T17:43:16.652Z,101317.80
2018-05-25T17:45:45.056Z,101315.97
2018-05-25T17:48:13.557Z,101316.52
2018-05-25T17:50:41.994Z,101322.13
2018-05-25T17:53:10.326Z,101325.84
2018-05-25T17:55:40.043Z,101323.81
2018-05-25T17:58:09.177Z,101327.01
2018-05-25T18:00:37.733Z,101325.81
2018-05-25T18:03:06.381Z,101323.75
2018-05-25T18:05:34.862Z,101325.83
2018-05-25T18:08:03.235Z,101331.90
2018-05-25T18:10:31.588Z,101332.88
2018-05-25T18:12:59.976Z,101327.22
2018-05-25T18:15:29.325Z,101336.70
2018-05-25T18:17:58.524Z,101332.85
2018-05-25T18:20:28.320Z,101334.84
2018-05-25T18:22:58.291Z,101332.04
2018-05-25T18:25:26.799Z,101332.00
2018-05-25T18:27:57.637Z,101337.48
2018-05-25T18:30:26.016Z,101339.47
2018-05-25T18:32:54.470Z,101335.91
2018-05-25T18:35:24.542Z,101336.69
2018-05-25T18:37:52.949Z,101333.55
2018-05-25T18:40:21.818Z,101335.53
2018-05-25T18:42:50.961Z,101332.49
2018-05-25T18:45:20.372Z,101339.98
2018-05-25T18:47:49.690Z,101342.95
2018-05-25T18:50:18.142Z,101348.33
2018-05-25T18:52:47.480Z,101345.14
2018-05-25T18:55:16.713Z,101345.05
2018-05-25T18:57:45.213Z,101349.03
2018-05-25T19:00:13.695Z,101349.59
2018-05-25T19:02:43.027Z,101349.25
2018-05-25T19:05:12.887Z,101352.11
2018-05-25T19:07:41.252Z,101363.95
2018-05-25T19:10:10.523Z,101364.64
2018-05-25T19:12:39.484Z,101367.34
2018-05-25T19:15:07.947Z,101368.70
2018-05-25T19:17:37.712Z,101370.36
2018-05-25T19:20:06.151Z,101373.29
2018-05-25T19:22:36.577Z,101374.20
2018-05-25T19:25:06.680Z,101366.23
2018-05-25T19:27:36.153Z,101379.58
2018-05-25T19:30:06.282Z,101380.77
2018-05-25T19:32:36.413Z,101381.03
2018-05-25T19:35:05.598Z,101390.55
2018-05-25T19:37:35.059Z,101396.80
2018-05-25T19:40:04.150Z,101400.42
2018-05-25T19:42:33.943Z,101414.44
2018-05-25T19:45:04.162Z,101413.95
2018-05-25T19:47:32.541Z,101423.59
2018-05-25T19:50:01.018Z,101427.11
2018-05-25T19:52:29.649Z,101432.30
2018-05-25T19:54:58.913Z,101440.92
2018-05-25T19:57:27.324Z,101436.06
2018-05-25T19:59:55.696Z,101440.77
2018-05-25T20:02:24.209Z,101444.22
2018-05-25T20:04:53.362Z,101443.87
2018-05-25T20:07:21.749Z,101450.53
2018-05-25T20:09:50.505Z,101450.67
2018-05-25T20:12:18.930Z,101452.05
2018-05-25T20:14:47.313Z,101459.23
2018-05-25T20:17:15.681Z,101460.69
2018-05-25T20:19:44.160Z,101461.86
2018-05-25T20:22:12.510Z,101463.74
2018-05-25T20:24:40.864Z,101466.48
2018-05-25T20:27:09.976Z,101462.25
2018-05-25T20:29:38.322Z,101460.28
2018-05-25T20:32:07.514Z,101466.16
2018-05-25T20:34:36.692Z,101463.19
2018-05-25T20:37:05.038Z,101465.14
2018-05-25T20:39:33.393Z,101465.05
2018-05-25T20:42:02.533Z,101465.94
2018-05-25T20:44:30.942Z,101467.37
2018-05-25T20:46:59.282Z,101468.58
2018-05-25T20:49:27.759Z,101463.20
2018-05-25T20:51:56.198Z,101472.46
2018-05-25T20:54:24.645Z,101474.84
2018-05-25T20:56:53.040Z,101470.14
2018-05-25T20:59:21.403Z,101473.08
2018-05-25T21:01:51.472Z,101482.28
2018-05-25T21:04:20.812Z,101476.31
2018-05-25T21:06:49.591Z,101475.09
2018-05-25T21:09:18.000Z,101481.35
2018-05-25T21:11:46.392Z,101484.62
2018-05-25T21:14:16.374Z,101488.20
2018-05-25T21:16:45.015Z,101497.30
2018-05-25T21:19:14.463Z,101492.73
2018-05-25T21:21:43.641Z,101496.72
2018-05-25T21:24:12.032Z,101496.57
2018-05-25T21:26:40.708Z,101492.64
2018-05-25T21:29:09.063Z,101501.75
2018-05-25T21:31:37.432Z,101500.34
2018-05-25T21:34:06.626Z,101502.88
2018-05-25T21:36:35.770Z,101513.08
2018-05-25T21:39:05.925Z,101517.52
2018-05-25T21:41:34.328Z,101512.18
2018-05-25T21:44:03.917Z,101515.95
2018-05-25T21:46:33.082Z,101517.17
2018-05-25T21:49:01.467Z,101516.33
2018-05-25T21:51:29.877Z,101512.23
2018-05-25T21:53:59.082Z,101513.59
2018-05-25T21:56:28.594Z,101523.38
2018-05-25T21:58:57.663Z,101519.16
2018-05-25T22:01:27.457Z,101527.80
2018-05-25T22:03:55.860Z,101532.39
2018-05-25T22:06:24.957Z,101536.34
2018-05-25T22:08:54.125Z,101537.63
2018-05-25T22:11:23.294Z,101534.25
2018-05-25T22:13:53.440Z,101540.79
2018-05-25T22:16:21.885Z,101535.93
2018-05-25T22:18:50.444Z,101545.05
2018-05-25T22:21:19.126Z,101541.83
2018-05-25T22:23:48.357Z,101540.54
2018-05-25T22:26:20.917Z,101543.45
2018-05-25T22:28:49.532Z,101542.08
2018-05-25T22:31:18.797Z,101545.36
2018-05-25T22:33:48.117Z,101556.02
2018-05-25T22:36:18.377Z,101555.44
2018-05-25T22:38:47.379Z,101555.22
2018-05-25T22:41:15.752Z,101553.08
2018-05-25T22:44:01.834Z,101553.59
2018-05-25T22:46:48.270Z,101558.05
2018-05-25T22:49:35.199Z,101560.81
2018-05-25T22:52:22.359Z,101565.10
2018-05-25T22:57:54.939Z,101558.36
2018-05-25T23:00:23.356Z,101559.59
2018-05-25T23:02:52.615Z,101560.83
2018-05-25T23:05:20.972Z,101566.24
2018-05-25T23:07:50.112Z,101561.91
2018-05-25T23:10:19.232Z,101563.88
2018-05-25T23:12:48.185Z,101559.93
2018-05-25T23:15:17.685Z,101564.97
2018-05-25T23:17:46.131Z,101567.00
2018-05-25T23:20:15.292Z,101563.14
2018-05-25T23:22:44.549Z,101567.93
2018-05-25T23:25:13.010Z,101560.75
2018-05-25T23:27:42.693Z,101569.31
2018-05-25T23:30:12.139Z,101569.13
2018-05-25T23:32:41.652Z,101571.84
2018-05-25T23:35:12.552Z,101574.74
2018-05-25T23:37:41.739Z,101572.23
2018-05-25T23:40:10.103Z,101574.53
2018-05-25T23:42:38.521Z,101576.34
2018-05-25T23:45:07.623Z,101576.84
2018-05-25T23:47:40.254Z,101574.30
2018-05-25T23:50:09.642Z,101572.74
2018-05-25T23:52:38.037Z,101571.47
2018-05-25T23:55:07.190Z,101571.02
2018-05-25T23:57:37.041Z,101572.86
